Terminal Aerodrome Forecast
Issued by NWS

Home | Current Version | Previous Version | Text Only | Print | Product List | Glossary Off
Versions: 1 2 3 4 5 6 7 8 9 10 11 12 13 14 15 16 17 18 19 20 21 22 23 24 25 26 27

000
FTUS43 KTOP 180300 AAA
TAFMHK
TAF AMD
KMHK 180337Z 1804/1824 09005KT P6SM SKC
     FM180500 09005KT 6SM BR SCT150
     FM180700 08003KT 4SM BR SCT150
      TEMPO 1811/1814 2SM BR SCT003 BKN015
     FM181400 11009KT 6SM BR BKN015
     FM181600 12009KT P6SM SCT035 BKN150=

USA.gov is the U.S. government's official web portal to all federal, state and local government web resources and services.